sensor_id;sensor_type;location;lat;lon;timestamp;temperature;humidity
23251;DHT22;11794;49.730;10.088;2023-01-15T00:01:36;10.10;99.90
23251;DHT22;11794;49.730;10.088;2023-01-15T00:04:04;10.10;99.90
23251;DHT22;11794;49.730;10.088;2023-01-15T00:06:31;10.10;99.90
23251;DHT22;11794;49.730;10.088;2023-01-15T00:08:59;10.20;99.90
23251;DHT22;11794;49.730;10.088;2023-01-15T00:11:24;10.10;99.90
23251;DHT22;11794;49.730;10.088;2023-01-15T00:13:50;10.10;99.90
23251;DHT22;11794;49.730;10.088;2023-01-15T00:16:19;10.20;99.90
23251;DHT22;11794;49.730;10.088;2023-01-15T00:18:53;10.30;99.90
23251;DHT22;11794;49.730;10.088;2023-01-15T00:21:20;10.30;99.90
23251;DHT22;11794;49.730;10.088;2023-01-15T00:23:46;10.30;99.90
23251;DHT22;11794;49.730;10.088;2023-01-15T00:26:31;10.40;99.90
23251;DHT22;11794;49.730;10.088;2023-01-15T00:29:16;10.40;99.90
23251;DHT22;11794;49.730;10.088;2023-01-15T00:31:43;10.50;99.90
23251;DHT22;11794;49.730;10.088;2023-01-15T00:34:09;10.50;99.90
23251;DHT22;11794;49.730;10.088;2023-01-15T00:36:35;10.50;99.90
23251;DHT22;11794;49.730;10.088;2023-01-15T00:39:03;10.50;99.90
23251;DHT22;11794;49.730;10.088;2023-01-15T00:41:28;10.50;99.90
23251;DHT22;11794;49.730;10.088;2023-01-15T00:43:54;10.50;99.90
23251;DHT22;11794;49.730;10.088;2023-01-15T00:46:20;10.50;99.90
23251;DHT22;11794;49.730;10.088;2023-01-15T00:48:45;10.50;99.90
23251;DHT22;11794;49.730;10.088;2023-01-15T00:51:11;10.50;99.90
23251;DHT22;11794;49.730;10.088;2023-01-15T00:53:36;10.50;99.90
23251;DHT22;11794;49.730;10.088;2023-01-15T00:56:02;10.50;99.90
23251;DHT22;11794;49.730;10.088;2023-01-15T00:58:27;10.50;99.90
23251;DHT22;11794;49.730;10.088;2023-01-15T01:00:54;10.40;99.90
23251;DHT22;11794;49.730;10.088;2023-01-15T01:03:20;10.40;99.90
23251;DHT22;11794;49.730;10.088;2023-01-15T01:05:46;10.40;99.90
23251;DHT22;11794;49.730;10.088;2023-01-15T01:08:11;10.40;99.90
23251;DHT22;11794;49.730;10.088;2023-01-15T01:10:38;10.40;99.90
23251;DHT22;11794;49.730;10.088;2023-01-15T01:13:04;10.40;99.90
23251;DHT22;11794;49.730;10.088;2023-01-15T01:15:29;10.30;99.90
23251;DHT22;11794;49.730;10.088;2023-01-15T01:17:57;10.30;99.90
23251;DHT22;11794;49.730;10.088;2023-01-15T01:20:22;10.30;99.90
23251;DHT22;11794;49.730;10.088;2023-01-15T01:22:48;10.30;99.90
23251;DHT22;11794;49.730;10.088;2023-01-15T01:25:14;10.30;99.90
23251;DHT22;11794;49.730;10.088;2023-01-15T01:27:39;10.30;99.90
23251;DHT22;11794;49.730;10.088;2023-01-15T01:30:05;10.30;99.90
23251;DHT22;11794;49.730;10.088;2023-01-15T01:32:31;10.30;99.90
23251;DHT22;11794;49.730;10.088;2023-01-15T01:34:56;10.30;99.90
23251;DHT22;11794;49.730;10.088;2023-01-15T01:37:22;10.30;99.90
23251;DHT22;11794;49.730;10.088;2023-01-15T01:39:47;10.20;99.90
23251;DHT22;11794;49.730;10.088;2023-01-15T01:42:15;10.30;99.90
23251;DHT22;11794;49.730;10.088;2023-01-15T01:47:16;10.30;99.90
23251;DHT22;11794;49.730;10.088;2023-01-15T01:49:48;10.30;99.90
23251;DHT22;11794;49.730;10.088;2023-01-15T01:52:20;10.40;99.90
23251;DHT22;11794;49.730;10.088;2023-01-15T01:54:49;10.50;99.90
23251;DHT22;11794;49.730;10.088;2023-01-15T01:57:16;10.50;99.90
23251;DHT22;11794;49.730;10.088;2023-01-15T01:59:42;10.50;99.90
23251;DHT22;11794;49.730;10.088;2023-01-15T02:02:08;10.50;99.90
23251;DHT22;11794;49.730;10.088;2023-01-15T02:04:35;10.50;99.90
23251;DHT22;11794;49.730;10.088;2023-01-15T02:07:02;10.50;99.90
23251;DHT22;11794;49.730;10.088;2023-01-15T02:09:28;10.50;99.90
23251;DHT22;11794;49.730;10.088;2023-01-15T02:11:56;10.40;99.90
23251;DHT22;11794;49.730;10.088;2023-01-15T02:14:33;10.40;99.90
23251;DHT22;11794;49.730;10.088;2023-01-15T02:17:15;10.40;99.90
23251;DHT22;11794;49.730;10.088;2023-01-15T02:28:15;10.30;99.90
23251;DHT22;11794;49.730;10.088;2023-01-15T02:30:47;10.20;99.90
23251;DHT22;11794;49.730;10.088;2023-01-15T02:33:46;10.10;99.90
23251;DHT22;11794;49.730;10.088;2023-01-15T02:36:14;10.10;99.90
23251;DHT22;11794;49.730;10.088;2023-01-15T02:38:44;10.00;99.90
23251;DHT22;11794;49.730;10.088;2023-01-15T02:41:11;10.00;99.90
23251;DHT22;11794;49.730;10.088;2023-01-15T02:43:45;9.90;99.90
23251;DHT22;11794;49.730;10.088;2023-01-15T02:46:14;9.90;99.90
23251;DHT22;11794;49.730;10.088;2023-01-15T02:48:45;9.90;99.90
23251;DHT22;11794;49.730;10.088;2023-01-15T02:51:14;9.90;99.90
23251;DHT22;11794;49.730;10.088;2023-01-15T02:53:43;9.80;99.90
23251;DHT22;11794;49.730;10.088;2023-01-15T02:56:13;9.80;99.90
23251;DHT22;11794;49.730;10.088;2023-01-15T02:58:41;9.70;99.90
23251;DHT22;11794;49.730;10.088;2023-01-15T03:01:17;9.70;99.90
23251;DHT22;11794;49.730;10.088;2023-01-15T03:04:09;9.70;99.90
23251;DHT22;11794;49.730;10.088;2023-01-15T03:06:48;9.60;99.90
23251;DHT22;11794;49.730;10.088;2023-01-15T03:09:17;9.60;99.90
23251;DHT22;11794;49.730;10.088;2023-01-15T03:11:50;9.60;99.90
23251;DHT22;11794;49.730;10.088;2023-01-15T03:14:25;9.60;99.90
23251;DHT22;11794;49.730;10.088;2023-01-15T03:16:57;9.50;99.90
23251;DHT22;11794;49.730;10.088;2023-01-15T03:19:28;9.50;99.90
23251;DHT22;11794;49.730;10.088;2023-01-15T03:22:11;9.50;99.90
23251;DHT22;11794;49.730;10.088;2023-01-15T03:24:46;9.50;99.90
23251;DHT22;11794;49.730;10.088;2023-01-15T03:27:13;9.50;99.90
23251;DHT22;11794;49.730;10.088;2023-01-15T03:29:46;9.50;99.90
23251;DHT22;11794;49.730;10.088;2023-01-15T03:32:14;9.50;99.90
23251;DHT22;11794;49.730;10.088;2023-01-15T03:34:58;9.50;99.90
23251;DHT22;11794;49.730;10.088;2023-01-15T03:37:25;9.50;99.90
23251;DHT22;11794;49.730;10.088;2023-01-15T03:39:52;9.50;99.90
23251;DHT22;11794;49.730;10.088;2023-01-15T03:42:47;9.50;99.90
23251;DHT22;11794;49.730;10.088;2023-01-15T03:45:26;9.50;99.90
23251;DHT22;11794;49.730;10.088;2023-01-15T03:50:55;9.50;99.90
23251;DHT22;11794;49.730;10.088;2023-01-15T03:53:26;9.50;99.90
23251;DHT22;11794;49.730;10.088;2023-01-15T03:56:28;9.50;99.90
23251;DHT22;11794;49.730;10.088;2023-01-15T03:59:22;9.50;99.90
23251;DHT22;11794;49.730;10.088;2023-01-15T04:01:49;9.50;99.90
23251;DHT22;11794;49.730;10.088;2023-01-15T04:04:16;9.50;99.90
23251;DHT22;11794;49.730;10.088;2023-01-15T04:06:42;9.60;99.90
23251;DHT22;11794;49.730;10.088;2023-01-15T04:09:10;9.50;99.90
23251;DHT22;11794;49.730;10.088;2023-01-15T04:11:36;9.50;99.90
23251;DHT22;11794;49.730;10.088;2023-01-15T04:14:02;9.60;99.90
23251;DHT22;11794;49.730;10.088;2023-01-15T04:16:30;9.50;99.90
23251;DHT22;11794;49.730;10.088;2023-01-15T04:18:56;9.50;99.90
23251;DHT22;11794;49.730;10.088;2023-01-15T04:21:22;9.50;99.90
23251;DHT22;11794;49.730;10.088;2023-01-15T04:23:48;9.50;99.90
23251;DHT22;11794;49.730;10.088;2023-01-15T04:26:13;9.50;99.90
23251;DHT22;11794;49.730;10.088;2023-01-15T04:28:39;9.50;99.90
23251;DHT22;11794;49.730;10.088;2023-01-15T04:31:05;9.50;99.90
23251;DHT22;11794;49.730;10.088;2023-01-15T04:33:31;9.50;99.90
23251;DHT22;11794;49.730;10.088;2023-01-15T04:36:00;9.40;99.90
23251;DHT22;11794;49.730;10.088;2023-01-15T04:38:26;9.40;99.90
23251;DHT22;11794;49.730;10.088;2023-01-15T04:40:51;9.40;99.90
23251;DHT22;11794;49.730;10.088;2023-01-15T04:43:35;9.40;99.90
23251;DHT22;11794;49.730;10.088;2023-01-15T04:46:21;9.50;99.90
23251;DHT22;11794;49.730;10.088;2023-01-15T04:48:47;9.50;99.90
23251;DHT22;11794;49.730;10.088;2023-01-15T04:51:12;9.20;99.90
23251;DHT22;11794;49.730;10.088;2023-01-15T04:53:38;8.90;99.90
23251;DHT22;11794;49.730;10.088;2023-01-15T04:56:04;8.80;99.90
23251;DHT22;11794;49.730;10.088;2023-01-15T04:58:30;8.70;99.90
23251;DHT22;11794;49.730;10.088;2023-01-15T05:00:56;8.60;99.90
23251;DHT22;11794;49.730;10.088;2023-01-15T05:03:22;8.60;99.90
23251;DHT22;11794;49.730;10.088;2023-01-15T05:05:47;8.40;99.90
23251;DHT22;11794;49.730;10.088;2023-01-15T05:08:15;8.20;99.90
23251;DHT22;11794;49.730;10.088;2023-01-15T05:10:40;8.10;99.90
23251;DHT22;11794;49.730;10.088;2023-01-15T05:13:06;7.90;99.90
23251;DHT22;11794;49.730;10.088;2023-01-15T05:15:31;7.80;99.90
23251;DHT22;11794;49.730;10.088;2023-01-15T05:17:57;7.70;99.90
23251;DHT22;11794;49.730;10.088;2023-01-15T05:20:22;7.60;99.90
23251;DHT22;11794;49.730;10.088;2023-01-15T05:22:48;7.60;99.90
23251;DHT22;11794;49.730;10.088;2023-01-15T05:25:13;7.50;99.90
23251;DHT22;11794;49.730;10.088;2023-01-15T05:27:39;7.40;99.90
23251;DHT22;11794;49.730;10.088;2023-01-15T05:30:05;7.40;99.90
23251;DHT22;11794;49.730;10.088;2023-01-15T05:32:31;7.30;99.90
23251;DHT22;11794;49.730;10.088;2023-01-15T05:34:57;7.30;99.90
23251;DHT22;11794;49.730;10.088;2023-01-15T05:37:22;7.30;99.90
23251;DHT22;11794;49.730;10.088;2023-01-15T05:39:48;7.30;99.90
23251;DHT22;11794;49.730;10.088;2023-01-15T05:42:13;7.30;99.90
23251;DHT22;11794;49.730;10.088;2023-01-15T05:44:39;7.30;99.90
23251;DHT22;11794;49.730;10.088;2023-01-15T05:47:04;7.20;99.90
23251;DHT22;11794;49.730;10.088;2023-01-15T05:49:32;7.20;99.90
23251;DHT22;11794;49.730;10.088;2023-01-15T05:51:59;7.20;99.90
23251;DHT22;11794;49.730;10.088;2023-01-15T05:54:27;7.20;99.90
23251;DHT22;11794;49.730;10.088;2023-01-15T05:56:53;7.10;99.90
23251;DHT22;11794;49.730;10.088;2023-01-15T05:59:21;7.10;99.90
23251;DHT22;11794;49.730;10.088;2023-01-15T06:01:47;7.10;99.90
23251;DHT22;11794;49.730;10.088;2023-01-15T06:04:12;7.00;99.90
23251;DHT22;11794;49.730;10.088;2023-01-15T06:06:39;6.90;99.90
23251;DHT22;11794;49.730;10.088;2023-01-15T06:09:05;6.70;99.90
23251;DHT22;11794;49.730;10.088;2023-01-15T06:11:31;6.60;99.90
23251;DHT22;11794;49.730;10.088;2023-01-15T06:13:57;6.50;99.90
23251;DHT22;11794;49.730;10.088;2023-01-15T06:16:22;6.50;99.90
23251;DHT22;11794;49.730;10.088;2023-01-15T06:18:48;6.40;99.90
23251;DHT22;11794;49.730;10.088;2023-01-15T06:21:14;6.50;99.90
23251;DHT22;11794;49.730;10.088;2023-01-15T06:23:40;6.50;99.90
23251;DHT22;11794;49.730;10.088;2023-01-15T06:26:10;6.50;99.90
23251;DHT22;11794;49.730;10.088;2023-01-15T06:28:36;6.40;99.90
23251;DHT22;11794;49.730;10.088;2023-01-15T06:31:09;6.40;99.90
23251;DHT22;11794;49.730;10.088;2023-01-15T06:33:35;6.40;99.90
23251;DHT22;11794;49.730;10.088;2023-01-15T06:36:06;6.30;99.90
23251;DHT22;11794;49.730;10.088;2023-01-15T06:38:32;6.20;99.90
23251;DHT22;11794;49.730;10.088;2023-01-15T06:41:02;6.20;99.90
23251;DHT22;11794;49.730;10.088;2023-01-15T06:43:28;6.20;99.90
23251;DHT22;11794;49.730;10.088;2023-01-15T06:46:13;6.20;99.90
23251;DHT22;11794;49.730;10.088;2023-01-15T06:48:58;6.10;99.90
23251;DHT22;11794;49.730;10.088;2023-01-15T06:51:24;6.10;99.90
23251;DHT22;11794;49.730;10.088;2023-01-15T06:53:50;6.10;99.90
23251;DHT22;11794;49.730;10.088;2023-01-15T06:56:15;6.10;99.90
23251;DHT22;11794;49.730;10.088;2023-01-15T06:58:42;6.00;99.90
23251;DHT22;11794;49.730;10.088;2023-01-15T07:01:14;5.90;99.90
23251;DHT22;11794;49.730;10.088;2023-01-15T07:03:40;6.00;99.90
23251;DHT22;11794;49.730;10.088;2023-01-15T07:06:10;5.80;99.90
23251;DHT22;11794;49.730;10.088;2023-01-15T07:08:36;5.80;99.90
23251;DHT22;11794;49.730;10.088;2023-01-15T07:11:05;5.80;99.90
23251;DHT22;11794;49.730;10.088;2023-01-15T07:13:32;5.80;99.90
23251;DHT22;11794;49.730;10.088;2023-01-15T07:16:02;5.70;99.90
23251;DHT22;11794;49.730;10.088;2023-01-15T07:18:29;5.70;99.90
23251;DHT22;11794;49.730;10.088;2023-01-15T07:20:56;5.70;99.90
23251;DHT22;11794;49.730;10.088;2023-01-15T07:23:26;5.60;99.90
23251;DHT22;11794;49.730;10.088;2023-01-15T07:25:52;5.60;99.90
23251;DHT22;11794;49.730;10.088;2023-01-15T07:28:22;5.70;99.90
23251;DHT22;11794;49.730;10.088;2023-01-15T07:30:47;5.60;99.90
23251;DHT22;11794;49.730;10.088;2023-01-15T07:33:13;5.50;99.90
23251;DHT22;11794;49.730;10.088;2023-01-15T07:35:39;5.40;99.90
23251;DHT22;11794;49.730;10.088;2023-01-15T07:38:04;5.40;99.90
23251;DHT22;11794;49.730;10.088;2023-01-15T07:40:30;5.30;99.90
23251;DHT22;11794;49.730;10.088;2023-01-15T07:42:55;5.20;99.90
23251;DHT22;11794;49.730;10.088;2023-01-15T07:45:40;5.20;99.90
23251;DHT22;11794;49.730;10.088;2023-01-15T07:48:25;5.10;99.90
23251;DHT22;11794;49.730;10.088;2023-01-15T07:51:09;5.10;99.90
23251;DHT22;11794;49.730;10.088;2023-01-15T07:53:35;5.10;99.90
23251;DHT22;11794;49.730;10.088;2023-01-15T07:56:01;5.00;99.90
23251;DHT22;11794;49.730;10.088;2023-01-15T07:58:26;5.00;99.90
23251;DHT22;11794;49.730;10.088;2023-01-15T08:00:52;5.00;99.90
23251;DHT22;11794;49.730;10.088;2023-01-15T08:03:17;5.00;99.90
23251;DHT22;11794;49.730;10.088;2023-01-15T08:05:43;4.90;99.90
23251;DHT22;11794;49.730;10.088;2023-01-15T08:08:16;4.90;99.90
23251;DHT22;11794;49.730;10.088;2023-01-15T08:10:41;4.70;99.90
23251;DHT22;11794;49.730;10.088;2023-01-15T08:13:26;4.70;99.90
23251;DHT22;11794;49.730;10.088;2023-01-15T08:16:10;4.70;99.90
23251;DHT22;11794;49.730;10.088;2023-01-15T08:18:36;4.70;99.90
23251;DHT22;11794;49.730;10.088;2023-01-15T08:21:01;4.80;99.90
23251;DHT22;11794;49.730;10.088;2023-01-15T08:23:27;4.70;99.90
23251;DHT22;11794;49.730;10.088;2023-01-15T08:25:52;4.60;99.90
23251;DHT22;11794;49.730;10.088;2023-01-15T08:28:18;4.60;99.90
23251;DHT22;11794;49.730;10.088;2023-01-15T08:30:43;4.70;99.90
23251;DHT22;11794;49.730;10.088;2023-01-15T08:33:09;4.60;99.90
23251;DHT22;11794;49.730;10.088;2023-01-15T08:35:35;4.60;99.90
23251;DHT22;11794;49.730;10.088;2023-01-15T08:38:07;4.60;99.90
23251;DHT22;11794;49.730;10.088;2023-01-15T08:40:34;4.60;99.90
23251;DHT22;11794;49.730;10.088;2023-01-15T08:43:01;4.60;99.90
23251;DHT22;11794;49.730;10.088;2023-01-15T08:45:27;4.60;99.90
23251;DHT22;11794;49.730;10.088;2023-01-15T08:47:56;4.60;99.90
23251;DHT22;11794;49.730;10.088;2023-01-15T08:50:22;4.60;99.90
23251;DHT22;11794;49.730;10.088;2023-01-15T08:52:48;4.60;99.90
23251;DHT22;11794;49.730;10.088;2023-01-15T08:55:13;4.70;99.90
23251;DHT22;11794;49.730;10.088;2023-01-15T08:57:39;4.70;99.90
23251;DHT22;11794;49.730;10.088;2023-01-15T09:00:05;4.70;99.90
23251;DHT22;11794;49.730;10.088;2023-01-15T09:02:31;4.60;99.90
23251;DHT22;11794;49.730;10.088;2023-01-15T09:04:57;4.70;99.90
23251;DHT22;11794;49.730;10.088;2023-01-15T09:07:22;4.70;99.90
23251;DHT22;11794;49.730;10.088;2023-01-15T09:09:48;4.60;99.90
23251;DHT22;11794;49.730;10.088;2023-01-15T09:12:13;4.60;99.90
23251;DHT22;11794;49.730;10.088;2023-01-15T09:14:39;4.60;99.90
23251;DHT22;11794;49.730;10.088;2023-01-15T09:17:05;4.60;99.90
23251;DHT22;11794;49.730;10.088;2023-01-15T09:19:31;4.60;99.90
23251;DHT22;11794;49.730;10.088;2023-01-15T09:21:56;4.60;99.90
23251;DHT22;11794;49.730;10.088;2023-01-15T09:24:22;4.60;99.90
23251;DHT22;11794;49.730;10.088;2023-01-15T09:26:47;4.60;99.90
23251;DHT22;11794;49.730;10.088;2023-01-15T09:29:13;4.60;99.90
23251;DHT22;11794;49.730;10.088;2023-01-15T09:31:39;4.70;99.90
23251;DHT22;11794;49.730;10.088;2023-01-15T09:34:04;4.70;99.90
23251;DHT22;11794;49.730;10.088;2023-01-15T09:36:32;4.70;99.90
23251;DHT22;11794;49.730;10.088;2023-01-15T09:38:59;4.70;99.90
23251;DHT22;11794;49.730;10.088;2023-01-15T09:47:44;4.80;99.90
23251;DHT22;11794;49.730;10.088;2023-01-15T09:55:16;4.80;99.90
23251;DHT22;11794;49.730;10.088;2023-01-15T09:57:43;4.80;99.90
23251;DHT22;11794;49.730;10.088;2023-01-15T10:00:16;4.90;99.90
23251;DHT22;11794;49.730;10.088;2023-01-15T10:03:00;4.90;99.90
23251;DHT22;11794;49.730;10.088;2023-01-15T10:05:49;4.90;99.90
23251;DHT22;11794;49.730;10.088;2023-01-15T10:08:29;4.80;99.90
23251;DHT22;11794;49.730;10.088;2023-01-15T10:13:46;5.00;99.90
23251;DHT22;11794;49.730;10.088;2023-01-15T10:16:19;5.00;99.90
23251;DHT22;11794;49.730;10.088;2023-01-15T10:18:45;5.00;99.90
23251;DHT22;11794;49.730;10.088;2023-01-15T10:21:22;5.00;99.90
23251;DHT22;11794;49.730;10.088;2023-01-15T10:24:13;5.00;99.90
23251;DHT22;11794;49.730;10.088;2023-01-15T10:26:58;5.20;99.90
23251;DHT22;11794;49.730;10.088;2023-01-15T10:29:36;5.10;99.90
23251;DHT22;11794;49.730;10.088;2023-01-15T10:34:57;5.20;99.90
23251;DHT22;11794;49.730;10.088;2023-01-15T10:37:33;5.20;99.90
23251;DHT22;11794;49.730;10.088;2023-01-15T10:40:26;5.20;99.90
23251;DHT22;11794;49.730;10.088;2023-01-15T10:43:24;5.20;99.90
23251;DHT22;11794;49.730;10.088;2023-01-15T10:45:56;5.30;99.90
23251;DHT22;11794;49.730;10.088;2023-01-15T10:51:01;5.30;99.90
23251;DHT22;11794;49.730;10.088;2023-01-15T10:53:43;5.30;99.90
23251;DHT22;11794;49.730;10.088;2023-01-15T10:56:32;5.30;99.90
23251;DHT22;11794;49.730;10.088;2023-01-15T10:59:15;5.30;99.90
23251;DHT22;11794;49.730;10.088;2023-01-15T11:01:43;5.40;99.90
23251;DHT22;11794;49.730;10.088;2023-01-15T11:04:10;5.30;99.90
23251;DHT22;11794;49.730;10.088;2023-01-15T11:06:37;5.40;99.90
23251;DHT22;11794;49.730;10.088;2023-01-15T11:09:03;5.40;99.90
23251;DHT22;11794;49.730;10.088;2023-01-15T11:11:36;5.40;99.90
23251;DHT22;11794;49.730;10.088;2023-01-15T11:14:31;5.40;99.90
23251;DHT22;11794;49.730;10.088;2023-01-15T11:17:17;5.40;99.90
23251;DHT22;11794;49.730;10.088;2023-01-15T11:20:03;5.40;99.90
23251;DHT22;11794;49.730;10.088;2023-01-15T11:22:29;5.30;99.90
23251;DHT22;11794;49.730;10.088;2023-01-15T11:24:57;5.30;99.90
23251;DHT22;11794;49.730;10.088;2023-01-15T11:27:31;5.20;99.90
23251;DHT22;11794;49.730;10.088;2023-01-15T11:29:59;5.20;99.90
23251;DHT22;11794;49.730;10.088;2023-01-15T11:32:36;5.10;99.90
23251;DHT22;11794;49.730;10.088;2023-01-15T11:37:33;5.00;99.90
23251;DHT22;11794;49.730;10.088;2023-01-15T11:40:00;5.10;99.90
23251;DHT22;11794;49.730;10.088;2023-01-15T11:42:32;4.80;99.90
23251;DHT22;11794;49.730;10.088;2023-01-15T11:45:20;4.40;99.90
23251;DHT22;11794;49.730;10.088;2023-01-15T11:48:18;4.10;99.90
23251;DHT22;11794;49.730;10.088;2023-01-15T11:51:15;3.90;99.90
23251;DHT22;11794;49.730;10.088;2023-01-15T11:53:47;3.90;99.90
23251;DHT22;11794;49.730;10.088;2023-01-15T11:56:23;3.90;99.90
23251;DHT22;11794;49.730;10.088;2023-01-15T11:58:53;3.90;99.90
23251;DHT22;11794;49.730;10.088;2023-01-15T12:01:34;4.00;99.90
23251;DHT22;11794;49.730;10.088;2023-01-15T12:04:03;4.00;99.90
23251;DHT22;11794;49.730;10.088;2023-01-15T12:06:30;4.00;99.90
23251;DHT22;11794;49.730;10.088;2023-01-15T12:09:19;4.00;99.90
23251;DHT22;11794;49.730;10.088;2023-01-15T12:15:05;4.10;99.90
23251;DHT22;11794;49.730;10.088;2023-01-15T12:20:49;4.20;99.90
23251;DHT22;11794;49.730;10.088;2023-01-15T12:26:26;4.40;99.90
23251;DHT22;11794;49.730;10.088;2023-01-15T12:29:11;4.50;99.90
23251;DHT22;11794;49.730;10.088;2023-01-15T12:31:42;4.60;99.90
23251;DHT22;11794;49.730;10.088;2023-01-15T12:34:22;4.60;99.90
23251;DHT22;11794;49.730;10.088;2023-01-15T12:37:32;4.60;99.90
23251;DHT22;11794;49.730;10.088;2023-01-15T12:42:16;4.70;99.90
23251;DHT22;11794;49.730;10.088;2023-01-15T12:45:15;4.60;99.90
23251;DHT22;11794;49.730;10.088;2023-01-15T12:50:41;4.60;99.90
23251;DHT22;11794;49.730;10.088;2023-01-15T12:53:22;4.60;99.90
23251;DHT22;11794;49.730;10.088;2023-01-15T12:55:55;4.60;99.90
23251;DHT22;11794;49.730;10.088;2023-01-15T13:00:59;4.60;99.90
23251;DHT22;11794;49.730;10.088;2023-01-15T13:03:44;4.70;99.90
23251;DHT22;11794;49.730;10.088;2023-01-15T13:06:10;4.80;99.90
23251;DHT22;11794;49.730;10.088;2023-01-15T13:11:18;4.60;99.90
23251;DHT22;11794;49.730;10.088;2023-01-15T13:13:44;4.60;99.90
23251;DHT22;11794;49.730;10.088;2023-01-15T13:19:07;4.50;99.90
23251;DHT22;11794;49.730;10.088;2023-01-15T13:21:36;4.40;99.90
23251;DHT22;11794;49.730;10.088;2023-01-15T13:32:10;4.60;99.90
23251;DHT22;11794;49.730;10.088;2023-01-15T13:34:50;4.60;99.90
23251;DHT22;11794;49.730;10.088;2023-01-15T13:39:46;4.60;99.90
23251;DHT22;11794;49.730;10.088;2023-01-15T13:42:20;4.60;99.90
23251;DHT22;11794;49.730;10.088;2023-01-15T13:47:45;4.50;99.90
23251;DHT22;11794;49.730;10.088;2023-01-15T13:50:35;4.50;99.90
23251;DHT22;11794;49.730;10.088;2023-01-15T13:55:39;4.60;99.90
23251;DHT22;11794;49.730;10.088;2023-01-15T13:58:21;4.90;99.90
23251;DHT22;11794;49.730;10.088;2023-01-15T14:00:47;5.20;99.90
23251;DHT22;11794;49.730;10.088;2023-01-15T14:03:28;5.30;99.90
23251;DHT22;11794;49.730;10.088;2023-01-15T14:06:02;5.60;99.90
23251;DHT22;11794;49.730;10.088;2023-01-15T14:08:38;6.80;99.90
23251;DHT22;11794;49.730;10.088;2023-01-15T14:11:04;7.70;99.90
23251;DHT22;11794;49.730;10.088;2023-01-15T14:13:56;7.30;99.90
23251;DHT22;11794;49.730;10.088;2023-01-15T14:16:35;8.30;99.90
23251;DHT22;11794;49.730;10.088;2023-01-15T14:19:47;9.10;99.90
23251;DHT22;11794;49.730;10.088;2023-01-15T14:31:11;6.80;99.90
23251;DHT22;11794;49.730;10.088;2023-01-15T14:33:35;6.30;99.90
23251;DHT22;11794;49.730;10.088;2023-01-15T14:36:18;6.20;99.90
23251;DHT22;11794;49.730;10.088;2023-01-15T14:38:47;6.50;99.90
23251;DHT22;11794;49.730;10.088;2023-01-15T14:41:14;6.30;99.90
23251;DHT22;11794;49.730;10.088;2023-01-15T14:43:47;5.80;99.90
23251;DHT22;11794;49.730;10.088;2023-01-15T14:46:24;5.50;99.90
23251;DHT22;11794;49.730;10.088;2023-01-15T14:48:51;5.20;99.90
23251;DHT22;11794;49.730;10.088;2023-01-15T14:51:27;5.00;99.90
23251;DHT22;11794;49.730;10.088;2023-01-15T14:54:02;4.80;99.90
23251;DHT22;11794;49.730;10.088;2023-01-15T14:56:34;4.80;99.90
23251;DHT22;11794;49.730;10.088;2023-01-15T14:59:08;5.00;99.90
23251;DHT22;11794;49.730;10.088;2023-01-15T15:01:53;5.40;99.90
23251;DHT22;11794;49.730;10.088;2023-01-15T15:07:20;5.60;99.90
23251;DHT22;11794;49.730;10.088;2023-01-15T15:10:17;5.40;99.90
23251;DHT22;11794;49.730;10.088;2023-01-15T15:15:41;5.00;99.90
23251;DHT22;11794;49.730;10.088;2023-01-15T15:26:25;4.80;99.90
23251;DHT22;11794;49.730;10.088;2023-01-15T15:29:02;4.60;99.90
23251;DHT22;11794;49.730;10.088;2023-01-15T15:31:33;4.50;99.90
23251;DHT22;11794;49.730;10.088;2023-01-15T15:33:59;4.40;99.90
23251;DHT22;11794;49.730;10.088;2023-01-15T15:36:29;4.40;99.90
23251;DHT22;11794;49.730;10.088;2023-01-15T15:38:59;4.40;99.90
23251;DHT22;11794;49.730;10.088;2023-01-15T15:41:30;4.30;99.90
23251;DHT22;11794;49.730;10.088;2023-01-15T15:44:51;4.30;99.90
23251;DHT22;11794;49.730;10.088;2023-01-15T15:47:41;4.20;99.90
23251;DHT22;11794;49.730;10.088;2023-01-15T15:50:27;4.20;99.90
23251;DHT22;11794;49.730;10.088;2023-01-15T15:52:55;4.20;99.90
23251;DHT22;11794;49.730;10.088;2023-01-15T15:55:24;4.20;99.90
23251;DHT22;11794;49.730;10.088;2023-01-15T15:57:56;4.20;99.90
23251;DHT22;11794;49.730;10.088;2023-01-15T16:00:30;4.10;99.90
23251;DHT22;11794;49.730;10.088;2023-01-15T16:03:03;4.20;99.90
23251;DHT22;11794;49.730;10.088;2023-01-15T16:05:29;4.20;99.90
23251;DHT22;11794;49.730;10.088;2023-01-15T16:08:28;4.20;99.90
23251;DHT22;11794;49.730;10.088;2023-01-15T16:10:55;4.30;99.90
23251;DHT22;11794;49.730;10.088;2023-01-15T16:13:29;4.40;99.90
23251;DHT22;11794;49.730;10.088;2023-01-15T16:15:56;4.40;99.90
23251;DHT22;11794;49.730;10.088;2023-01-15T16:18:31;4.40;99.90
23251;DHT22;11794;49.730;10.088;2023-01-15T16:20:57;4.40;99.90
23251;DHT22;11794;49.730;10.088;2023-01-15T16:23:26;4.40;99.90
23251;DHT22;11794;49.730;10.088;2023-01-15T16:28:52;4.50;99.90
23251;DHT22;11794;49.730;10.088;2023-01-15T16:31:19;4.50;99.90
23251;DHT22;11794;49.730;10.088;2023-01-15T16:33:51;4.50;99.90
23251;DHT22;11794;49.730;10.088;2023-01-15T16:36:17;4.50;99.90
23251;DHT22;11794;49.730;10.088;2023-01-15T16:38:47;4.50;99.90
23251;DHT22;11794;49.730;10.088;2023-01-15T16:41:23;4.50;99.90
23251;DHT22;11794;49.730;10.088;2023-01-15T16:43:54;4.40;99.90
23251;DHT22;11794;49.730;10.088;2023-01-15T16:46:21;4.40;99.90
23251;DHT22;11794;49.730;10.088;2023-01-15T16:48:47;4.40;99.90
23251;DHT22;11794;49.730;10.088;2023-01-15T16:51:29;4.40;99.90
23251;DHT22;11794;49.730;10.088;2023-01-15T16:53:56;4.40;99.90
23251;DHT22;11794;49.730;10.088;2023-01-15T16:59:00;4.30;99.90
23251;DHT22;11794;49.730;10.088;2023-01-15T17:01:38;4.20;99.90
23251;DHT22;11794;49.730;10.088;2023-01-15T17:04:26;4.20;99.90
23251;DHT22;11794;49.730;10.088;2023-01-15T17:07:04;4.20;99.90
23251;DHT22;11794;49.730;10.088;2023-01-15T17:09:33;4.20;99.90
23251;DHT22;11794;49.730;10.088;2023-01-15T17:17:43;4.30;99.90
23251;DHT22;11794;49.730;10.088;2023-01-15T17:20:10;4.30;99.90
23251;DHT22;11794;49.730;10.088;2023-01-15T17:22:38;4.30;99.90
23251;DHT22;11794;49.730;10.088;2023-01-15T17:25:27;4.20;99.90
23251;DHT22;11794;49.730;10.088;2023-01-15T17:27:55;4.20;99.90
23251;DHT22;11794;49.730;10.088;2023-01-15T17:30:21;4.20;99.90
23251;DHT22;11794;49.730;10.088;2023-01-15T17:32:50;4.20;99.90
23251;DHT22;11794;49.730;10.088;2023-01-15T17:35:23;4.20;99.90
23251;DHT22;11794;49.730;10.088;2023-01-15T17:37:48;4.30;99.90
23251;DHT22;11794;49.730;10.088;2023-01-15T17:40:14;4.30;99.90
23251;DHT22;11794;49.730;10.088;2023-01-15T17:42:40;4.20;99.90